sensor_id;sensor_type;location;lat;lon;timestamp;pressure;altitude;pressure_sealevel;temperature
71960;BMP280;59832;51.146;14.024;2022-09-28T00:00:08;96710.69;;;8.36
71960;BMP280;59832;51.146;14.024;2022-09-28T00:02:34;96709.91;;;8.32
71960;BMP280;59832;51.146;14.024;2022-09-28T00:05:01;96712.84;;;8.37
71960;BMP280;59832;51.146;14.024;2022-09-28T00:07:27;96705.59;;;8.36
71960;BMP280;59832;51.146;14.024;2022-09-28T00:09:54;96706.69;;;8.35
71960;BMP280;59832;51.146;14.024;2022-09-28T00:12:20;96702.34;;;8.35
71960;BMP280;59832;51.146;14.024;2022-09-28T00:14:47;96702.69;;;8.34
71960;BMP280;59832;51.146;14.024;2022-09-28T00:17:13;96702.00;;;8.44
71960;BMP280;59832;51.146;14.024;2022-09-28T00:19:41;96705.63;;;8.53
71960;BMP280;59832;51.146;14.024;2022-09-28T00:22:09;96694.75;;;8.42
71960;BMP280;59832;51.146;14.024;2022-09-28T00:24:36;96705.25;;;8.48
71960;BMP280;59832;51.146;14.024;2022-09-28T00:27:02;96696.91;;;8.44
71960;BMP280;59832;51.146;14.024;2022-09-28T00:29:33;96697.69;;;8.55
71960;BMP280;59832;51.146;14.024;2022-09-28T00:32:00;96694.41;;;8.61
71960;BMP280;59832;51.146;14.024;2022-09-28T00:34:28;96693.66;;;8.47
71960;BMP280;59832;51.146;14.024;2022-09-28T00:36:58;96694.38;;;8.44
71960;BMP280;59832;51.146;14.024;2022-09-28T00:39:25;96686.78;;;8.44
71960;BMP280;59832;51.146;14.024;2022-09-28T00:41:52;96689.66;;;8.42
71960;BMP280;59832;51.146;14.024;2022-09-28T00:46:52;96690.03;;;8.51
71960;BMP280;59832;51.146;14.024;2022-09-28T00:49:20;96685.31;;;8.39
71960;BMP280;59832;51.146;14.024;2022-09-28T00:51:47;96686.75;;;8.40
71960;BMP280;59832;51.146;14.024;2022-09-28T00:54:14;96682.06;;;8.39
71960;BMP280;59832;51.146;14.024;2022-09-28T00:56:41;96675.91;;;8.50
71960;BMP280;59832;51.146;14.024;2022-09-28T00:59:09;96676.25;;;8.38
71960;BMP280;59832;51.146;14.024;2022-09-28T01:01:36;96679.16;;;8.30
71960;BMP280;59832;51.146;14.024;2022-09-28T01:04:02;96679.16;;;8.26
71960;BMP280;59832;51.146;14.024;2022-09-28T01:06:31;96679.50;;;8.25
71960;BMP280;59832;51.146;14.024;2022-09-28T01:08:59;96674.06;;;8.23
71960;BMP280;59832;51.146;14.024;2022-09-28T01:11:28;96669.72;;;8.23
71960;BMP280;59832;51.146;14.024;2022-09-28T01:13:56;96670.44;;;8.20
71960;BMP280;59832;51.146;14.024;2022-09-28T01:16:29;96667.91;;;8.20
71960;BMP280;59832;51.146;14.024;2022-09-28T01:21:23;96663.56;;;8.24
71960;BMP280;59832;51.146;14.024;2022-09-28T01:23:59;96659.22;;;8.25
71960;BMP280;59832;51.146;14.024;2022-09-28T01:29:33;96658.16;;;8.19
71960;BMP280;59832;51.146;14.024;2022-09-28T01:32:07;96646.19;;;8.12
71960;BMP280;59832;51.146;14.024;2022-09-28T01:34:37;96642.94;;;8.19
71960;BMP280;59832;51.146;14.024;2022-09-28T01:37:05;96645.06;;;8.06
71960;BMP280;59832;51.146;14.024;2022-09-28T01:39:39;96647.22;;;7.97
71960;BMP280;59832;51.146;14.024;2022-09-28T01:42:10;96643.94;;;7.93
71960;BMP280;59832;51.146;14.024;2022-09-28T01:44:40;96638.50;;;7.91
71960;BMP280;59832;51.146;14.024;2022-09-28T01:47:08;96640.31;;;7.87
71960;BMP280;59832;51.146;14.024;2022-09-28T01:49:36;96645.03;;;7.85
71960;BMP280;59832;51.146;14.024;2022-09-28T01:52:17;96641.75;;;7.84
71960;BMP280;59832;51.146;14.024;2022-09-28T01:57:20;96640.25;;;7.72
71960;BMP280;59832;51.146;14.024;2022-09-28T01:59:54;96643.88;;;7.71
71960;BMP280;59832;51.146;14.024;2022-09-28T02:02:24;96638.06;;;7.71
71960;BMP280;59832;51.146;14.024;2022-09-28T02:04:56;96634.81;;;7.67
71960;BMP280;59832;51.146;14.024;2022-09-28T02:07:37;96631.56;;;7.70
71960;BMP280;59832;51.146;14.024;2022-09-28T02:10:06;96635.53;;;7.64
71960;BMP280;59832;51.146;14.024;2022-09-28T02:12:47;96629.34;;;7.58
71960;BMP280;59832;51.146;14.024;2022-09-28T02:17:42;96637.22;;;7.39
71960;BMP280;59832;51.146;14.024;2022-09-28T02:20:09;96635.75;;;7.34
71960;BMP280;59832;51.146;14.024;2022-09-28T02:22:38;96635.38;;;7.36
71960;BMP280;59832;51.146;14.024;2022-09-28T02:25:12;96629.56;;;7.32
71960;BMP280;59832;51.146;14.024;2022-09-28T02:27:46;96637.50;;;7.26
71960;BMP280;59832;51.146;14.024;2022-09-28T02:30:17;96626.31;;;7.27
71960;BMP280;59832;51.146;14.024;2022-09-28T02:32:45;96625.91;;;7.22
71960;BMP280;59832;51.146;14.024;2022-09-28T02:35:12;96623.72;;;7.20
71960;BMP280;59832;51.146;14.024;2022-09-28T02:37:39;96617.25;;;7.23
71960;BMP280;59832;51.146;14.024;2022-09-28T02:40:16;96622.25;;;7.19
71960;BMP280;59832;51.146;14.024;2022-09-28T02:58:33;96614.31;;;7.17
71960;BMP280;59832;51.146;14.024;2022-09-28T03:11:36;96593.72;;;7.19
71960;BMP280;59832;51.146;14.024;2022-09-28T03:14:03;96592.34;;;7.36
71960;BMP280;59832;51.146;14.024;2022-09-28T03:16:29;96589.06;;;7.28
71960;BMP280;59832;51.146;14.024;2022-09-28T03:18:57;96591.22;;;7.22
71960;BMP280;59832;51.146;14.024;2022-09-28T03:21:23;96586.53;;;7.24
71960;BMP280;59832;51.146;14.024;2022-09-28T03:23:50;96586.63;;;7.46
71960;BMP280;59832;51.146;14.024;2022-09-28T03:26:16;96586.31;;;7.51
71960;BMP280;59832;51.146;14.024;2022-09-28T03:28:43;96584.75;;;7.32
71960;BMP280;59832;51.146;14.024;2022-09-28T03:31:09;96582.94;;;7.33
71960;BMP280;59832;51.146;14.024;2022-09-28T03:33:35;96581.16;;;7.37
71960;BMP280;59832;51.146;14.024;2022-09-28T03:36:02;96573.28;;;7.49
71960;BMP280;59832;51.146;14.024;2022-09-28T03:38:28;96575.00;;;7.34
71960;BMP280;59832;51.146;14.024;2022-09-28T03:40:55;96572.81;;;7.29
71960;BMP280;59832;51.146;14.024;2022-09-28T03:43:22;96576.09;;;7.33
71960;BMP280;59832;51.146;14.024;2022-09-28T03:45:55;96576.06;;;7.29
71960;BMP280;59832;51.146;14.024;2022-09-28T03:48:23;96568.09;;;7.27
71960;BMP280;59832;51.146;14.024;2022-09-28T03:50:55;96559.44;;;7.25
71960;BMP280;59832;51.146;14.024;2022-09-28T03:53:22;96563.78;;;7.24
71960;BMP280;59832;51.146;14.024;2022-09-28T03:55:48;96566.31;;;7.28
71960;BMP280;59832;51.146;14.024;2022-09-28T03:58:16;96574.69;;;7.39
71960;BMP280;59832;51.146;14.024;2022-09-28T04:00:42;96573.59;;;7.40
71960;BMP280;59832;51.146;14.024;2022-09-28T04:03:08;96578.72;;;7.51
71960;BMP280;59832;51.146;14.024;2022-09-28T04:05:35;96574.69;;;7.43
71960;BMP280;59832;51.146;14.024;2022-09-28T04:08:01;96579.75;;;7.43
71960;BMP280;59832;51.146;14.024;2022-09-28T04:10:27;96574.72;;;7.50
71960;BMP280;59832;51.146;14.024;2022-09-28T04:12:54;96575.78;;;7.49
71960;BMP280;59832;51.146;14.024;2022-09-28T04:15:21;96577.59;;;7.52
71960;BMP280;59832;51.146;14.024;2022-09-28T04:17:48;96574.69;;;7.46
71960;BMP280;59832;51.146;14.024;2022-09-28T04:20:14;96564.63;;;7.64
71960;BMP280;59832;51.146;14.024;2022-09-28T04:22:40;96572.59;;;7.62
71960;BMP280;59832;51.146;14.024;2022-09-28T04:25:07;96562.81;;;7.61
71960;BMP280;59832;51.146;14.024;2022-09-28T04:27:33;96561.00;;;7.58
71960;BMP280;59832;51.146;14.024;2022-09-28T04:30:18;96563.16;;;7.56
71960;BMP280;59832;51.146;14.024;2022-09-28T04:32:45;96557.75;;;7.57
71960;BMP280;59832;51.146;14.024;2022-09-28T04:35:12;96550.59;;;7.84
71960;BMP280;59832;51.146;14.024;2022-09-28T04:37:38;96543.00;;;7.84
71960;BMP280;59832;51.146;14.024;2022-09-28T04:40:05;96553.06;;;7.66
71960;BMP280;59832;51.146;14.024;2022-09-28T04:42:31;96544.00;;;7.58
71960;BMP280;59832;51.146;14.024;2022-09-28T04:44:58;96543.25;;;7.54
71960;BMP280;59832;51.146;14.024;2022-09-28T04:47:26;96539.69;;;7.66
71960;BMP280;59832;51.146;14.024;2022-09-28T04:49:52;96545.81;;;7.51
71960;BMP280;59832;51.146;14.024;2022-09-28T04:52:18;96547.66;;;7.64
71960;BMP280;59832;51.146;14.024;2022-09-28T04:54:44;96530.69;;;7.90
71960;BMP280;59832;51.146;14.024;2022-09-28T04:57:11;96525.25;;;7.81
71960;BMP280;59832;51.146;14.024;2022-09-28T04:59:37;96521.97;;;7.69
71960;BMP280;59832;51.146;14.024;2022-09-28T05:02:03;96512.91;;;7.61
71960;BMP280;59832;51.146;14.024;2022-09-28T05:04:30;96509.34;;;7.84
71960;BMP280;59832;51.146;14.024;2022-09-28T05:06:56;96509.69;;;7.64
71960;BMP280;59832;51.146;14.024;2022-09-28T05:09:22;96493.75;;;7.64
71960;BMP280;59832;51.146;14.024;2022-09-28T05:11:49;96485.84;;;7.83
71960;BMP280;59832;51.146;14.024;2022-09-28T05:14:17;96478.56;;;7.64
71960;BMP280;59832;51.146;14.024;2022-09-28T05:16:44;96476.75;;;7.61
71960;BMP280;59832;51.146;14.024;2022-09-28T05:19:11;96472.44;;;7.72
71960;BMP280;59832;51.146;14.024;2022-09-28T05:21:37;96479.97;;;7.40
71960;BMP280;59832;51.146;14.024;2022-09-28T05:24:03;96479.63;;;7.49
71960;BMP280;59832;51.146;14.024;2022-09-28T05:26:32;96474.59;;;7.63
71960;BMP280;59832;51.146;14.024;2022-09-28T05:28:59;96476.72;;;7.47
71960;BMP280;59832;51.146;14.024;2022-09-28T05:31:25;96478.88;;;7.38
71960;BMP280;59832;51.146;14.024;2022-09-28T05:33:54;96474.53;;;7.38
71960;BMP280;59832;51.146;14.024;2022-09-28T05:36:21;96475.63;;;7.48
71960;BMP280;59832;51.146;14.024;2022-09-28T05:38:47;96486.09;;;7.46
71960;BMP280;59832;51.146;14.024;2022-09-28T05:41:13;96485.78;;;7.58
71960;BMP280;59832;51.146;14.024;2022-09-28T05:43:39;96485.75;;;7.55
71960;BMP280;59832;51.146;14.024;2022-09-28T05:46:06;96490.13;;;7.58
71960;BMP280;59832;51.146;14.024;2022-09-28T05:48:33;96484.38;;;7.64
71960;BMP280;59832;51.146;14.024;2022-09-28T05:50:59;96480.72;;;7.69
71960;BMP280;59832;51.146;14.024;2022-09-28T05:53:25;96482.94;;;7.78
71960;BMP280;59832;51.146;14.024;2022-09-28T05:55:51;96482.22;;;7.84
71960;BMP280;59832;51.146;14.024;2022-09-28T05:58:18;96477.13;;;7.88
71960;BMP280;59832;51.146;14.024;2022-09-28T06:00:44;96472.78;;;7.88
71960;BMP280;59832;51.146;14.024;2022-09-28T06:03:11;96472.06;;;7.88
71960;BMP280;59832;51.146;14.024;2022-09-28T06:05:37;96474.59;;;7.98
71960;BMP280;59832;51.146;14.024;2022-09-28T06:08:05;96465.56;;;7.90
71960;BMP280;59832;51.146;14.024;2022-09-28T06:10:32;96452.53;;;7.99
71960;BMP280;59832;51.146;14.024;2022-09-28T06:12:58;96459.41;;;8.05
71960;BMP280;59832;51.146;14.024;2022-09-28T06:15:26;96457.94;;;8.22
71960;BMP280;59832;51.146;14.024;2022-09-28T06:17:59;96460.50;;;8.11
71960;BMP280;59832;51.146;14.024;2022-09-28T06:20:26;96450.00;;;8.06
71960;BMP280;59832;51.146;14.024;2022-09-28T06:22:52;96448.22;;;8.03
71960;BMP280;59832;51.146;14.024;2022-09-28T06:25:19;96443.13;;;8.06
71960;BMP280;59832;51.146;14.024;2022-09-28T06:27:53;96434.06;;;8.12
71960;BMP280;59832;51.146;14.024;2022-09-28T06:30:19;96426.84;;;8.07
71960;BMP280;59832;51.146;14.024;2022-09-28T06:32:46;96428.63;;;8.25
71960;BMP280;59832;51.146;14.024;2022-09-28T06:35:12;96419.97;;;8.19
71960;BMP280;59832;51.146;14.024;2022-09-28T06:37:43;96414.91;;;8.11
71960;BMP280;59832;51.146;14.024;2022-09-28T06:40:09;96415.97;;;8.28
71960;BMP280;59832;51.146;14.024;2022-09-28T06:42:35;96408.38;;;8.25
71960;BMP280;59832;51.146;14.024;2022-09-28T06:45:02;96411.66;;;7.90
71960;BMP280;59832;51.146;14.024;2022-09-28T06:47:29;96406.56;;;8.11
71960;BMP280;59832;51.146;14.024;2022-09-28T06:49:57;96406.22;;;7.91
71960;BMP280;59832;51.146;14.024;2022-09-28T06:52:23;96414.91;;;8.11
71960;BMP280;59832;51.146;14.024;2022-09-28T06:54:50;96422.16;;;8.02
71960;BMP280;59832;51.146;14.024;2022-09-28T06:57:17;96430.09;;;7.90
71960;BMP280;59832;51.146;14.024;2022-09-28T06:59:43;96439.50;;;8.14
71960;BMP280;59832;51.146;14.024;2022-09-28T07:02:10;96427.91;;;8.13
71960;BMP280;59832;51.146;14.024;2022-09-28T07:04:40;96420.72;;;8.08
71960;BMP280;59832;51.146;14.024;2022-09-28T07:07:10;96424.28;;;8.14
71960;BMP280;59832;51.146;14.024;2022-09-28T07:09:36;96426.84;;;8.14
71960;BMP280;59832;51.146;14.024;2022-09-28T07:12:08;96428.28;;;8.26
71960;BMP280;59832;51.146;14.024;2022-09-28T07:14:38;96422.81;;;8.38
71960;BMP280;59832;51.146;14.024;2022-09-28T07:17:13;96420.69;;;8.15
71960;BMP280;59832;51.146;14.024;2022-09-28T07:19:40;96428.25;;;8.23
71960;BMP280;59832;51.146;14.024;2022-09-28T07:22:06;96431.19;;;8.28
71960;BMP280;59832;51.146;14.024;2022-09-28T07:24:33;96435.16;;;8.26
71960;BMP280;59832;51.146;14.024;2022-09-28T07:26:59;96433.69;;;8.32
71960;BMP280;59832;51.146;14.024;2022-09-28T07:29:27;96439.50;;;8.29
71960;BMP280;59832;51.146;14.024;2022-09-28T07:31:54;96444.16;;;8.30
71960;BMP280;59832;51.146;14.024;2022-09-28T07:34:20;96441.28;;;8.35
71960;BMP280;59832;51.146;14.024;2022-09-28T07:36:48;96448.16;;;8.31
71960;BMP280;59832;51.146;14.024;2022-09-28T07:39:14;96453.59;;;8.30
71960;BMP280;59832;51.146;14.024;2022-09-28T07:41:40;96461.91;;;8.44
71960;BMP280;59832;51.146;14.024;2022-09-28T07:44:08;96455.44;;;8.29
71960;BMP280;59832;51.146;14.024;2022-09-28T07:46:34;96447.44;;;8.34
71960;BMP280;59832;51.146;14.024;2022-09-28T07:49:02;96459.75;;;8.39
71960;BMP280;59832;51.146;14.024;2022-09-28T07:51:37;96446.38;;;8.28
71960;BMP280;59832;51.146;14.024;2022-09-28T07:54:03;96434.44;;;8.25
71960;BMP280;59832;51.146;14.024;2022-09-28T07:56:31;96428.66;;;8.28
71960;BMP280;59832;51.146;14.024;2022-09-28T07:58:59;96427.88;;;8.42
71960;BMP280;59832;51.146;14.024;2022-09-28T08:01:26;96427.91;;;8.21
71960;BMP280;59832;51.146;14.024;2022-09-28T08:03:52;96433.69;;;8.35
71960;BMP280;59832;51.146;14.024;2022-09-28T08:06:21;96422.09;;;8.31
71960;BMP280;59832;51.146;14.024;2022-09-28T08:08:48;96431.91;;;8.25
71960;BMP280;59832;51.146;14.024;2022-09-28T08:11:15;96428.25;;;8.37
71960;BMP280;59832;51.146;14.024;2022-09-28T08:13:42;96430.75;;;8.54
71960;BMP280;59832;51.146;14.024;2022-09-28T08:16:10;96426.72;;;8.68
71960;BMP280;59832;51.146;14.024;2022-09-28T08:18:37;96433.19;;;8.76
71960;BMP280;59832;51.146;14.024;2022-09-28T08:21:04;96424.91;;;8.68
71960;BMP280;59832;51.146;14.024;2022-09-28T08:23:49;96437.25;;;8.59
71960;BMP280;59832;51.146;14.024;2022-09-28T08:26:15;96442.69;;;8.57
71960;BMP280;59832;51.146;14.024;2022-09-28T08:28:42;96445.91;;;8.69
71960;BMP280;59832;51.146;14.024;2022-09-28T08:31:10;96439.72;;;8.77
71960;BMP280;59832;51.146;14.024;2022-09-28T08:33:36;96433.56;;;8.78
71960;BMP280;59832;51.146;14.024;2022-09-28T08:36:03;96431.72;;;8.85
71960;BMP280;59832;51.146;14.024;2022-09-28T08:38:29;96445.50;;;8.74
71960;BMP280;59832;51.146;14.024;2022-09-28T08:41:05;96450.59;;;8.77
71960;BMP280;59832;51.146;14.024;2022-09-28T08:46:02;96437.88;;;8.81
71960;BMP280;59832;51.146;14.024;2022-09-28T08:48:29;96437.50;;;8.82
71960;BMP280;59832;51.146;14.024;2022-09-28T08:54:44;96452.75;;;8.89
71960;BMP280;59832;51.146;14.024;2022-09-28T08:57:20;96440.09;;;8.79
71960;BMP280;59832;51.146;14.024;2022-09-28T08:59:52;96444.03;;;8.83
71960;BMP280;59832;51.146;14.024;2022-09-28T09:02:31;96437.16;;;8.84
71960;BMP280;59832;51.146;14.024;2022-09-28T09:04:59;96433.97;;;8.62
71960;BMP280;59832;51.146;14.024;2022-09-28T09:10:15;96431.47;;;8.55
71960;BMP280;59832;51.146;14.024;2022-09-28T09:17:56;96449.91;;;8.55
71960;BMP280;59832;51.146;14.024;2022-09-28T09:22:58;96449.56;;;8.57
71960;BMP280;59832;51.146;14.024;2022-09-28T09:33:23;96447.38;;;8.55
71960;BMP280;59832;51.146;14.024;2022-09-28T09:36:16;96440.50;;;8.63
71960;BMP280;59832;51.146;14.024;2022-09-28T09:38:57;96439.75;;;8.70
71960;BMP280;59832;51.146;14.024;2022-09-28T09:46:37;96437.44;;;9.03
71960;BMP280;59832;51.146;14.024;2022-09-28T09:49:14;96432.34;;;9.07
71960;BMP280;59832;51.146;14.024;2022-09-28T09:54:25;96433.13;;;8.97
71960;BMP280;59832;51.146;14.024;2022-09-28T09:57:00;96430.59;;;8.93
71960;BMP280;59832;51.146;14.024;2022-09-28T09:59:32;96427.84;;;8.52
71960;BMP280;59832;51.146;14.024;2022-09-28T10:02:00;96437.25;;;8.52
71960;BMP280;59832;51.146;14.024;2022-09-28T10:04:28;96432.84;;;8.74
71960;BMP280;59832;51.146;14.024;2022-09-28T10:06:57;96427.81;;;8.67
71960;BMP280;59832;51.146;14.024;2022-09-28T10:09:40;96426.34;;;8.66
71960;BMP280;59832;51.146;14.024;2022-09-28T10:12:08;96427.81;;;8.56
71960;BMP280;59832;51.146;14.024;2022-09-28T10:14:37;96430.72;;;8.58
71960;BMP280;59832;51.146;14.024;2022-09-28T10:17:03;96436.22;;;8.46
71960;BMP280;59832;51.146;14.024;2022-09-28T10:19:30;96426.41;;;8.55
71960;BMP280;59832;51.146;14.024;2022-09-28T10:21:58;96430.41;;;8.38
71960;BMP280;59832;51.146;14.024;2022-09-28T10:24:34;96438.00;;;8.49
71960;BMP280;59832;51.146;14.024;2022-09-28T10:27:10;96442.00;;;8.36
71960;BMP280;59832;51.146;14.024;2022-09-28T10:29:48;96438.41;;;8.37
71960;BMP280;59832;51.146;14.024;2022-09-28T10:32:22;96445.25;;;8.33
71960;BMP280;59832;51.146;14.024;2022-09-28T10:34:50;96430.47;;;8.17
71960;BMP280;59832;51.146;14.024;2022-09-28T10:37:16;96419.25;;;8.00
71960;BMP280;59832;51.146;14.024;2022-09-28T10:42:17;96417.06;;;8.20
71960;BMP280;59832;51.146;14.024;2022-09-28T10:44:51;96413.78;;;8.20
71960;BMP280;59832;51.146;14.024;2022-09-28T10:47:18;96400.03;;;8.28
71960;BMP280;59832;51.146;14.024;2022-09-28T10:49:45;96400.75;;;8.35
71960;BMP280;59832;51.146;14.024;2022-09-28T10:52:30;96399.25;;;8.48
71960;BMP280;59832;51.146;14.024;2022-09-28T10:54:56;96392.03;;;8.33
71960;BMP280;59832;51.146;14.024;2022-09-28T10:57:41;96403.66;;;8.27
71960;BMP280;59832;51.146;14.024;2022-09-28T11:00:13;96393.50;;;8.37
71960;BMP280;59832;51.146;14.024;2022-09-28T11:02:53;96393.81;;;8.53
71960;BMP280;59832;51.146;14.024;2022-09-28T11:05:21;96391.53;;;8.80
71960;BMP280;59832;51.146;14.024;2022-09-28T11:07:48;96389.06;;;8.63
71960;BMP280;59832;51.146;14.024;2022-09-28T11:10:19;96386.84;;;8.72
71960;BMP280;59832;51.146;14.024;2022-09-28T11:12:46;96389.78;;;8.63
71960;BMP280;59832;51.146;14.024;2022-09-28T11:15:18;96394.81;;;8.77
71960;BMP280;59832;51.146;14.024;2022-09-28T11:17:45;96389.75;;;8.70
71960;BMP280;59832;51.146;14.024;2022-09-28T11:22:57;96380.72;;;8.62
71960;BMP280;59832;51.146;14.024;2022-09-28T11:25:25;96383.59;;;8.64
71960;BMP280;59832;51.146;14.024;2022-09-28T11:30:28;96382.88;;;8.67
71960;BMP280;59832;51.146;14.024;2022-09-28T11:32:59;96385.78;;;8.66
71960;BMP280;59832;51.146;14.024;2022-09-28T11:35:29;96384.28;;;8.79
71960;BMP280;59832;51.146;14.024;2022-09-28T11:42:59;96408.19;;;8.74
71960;BMP280;59832;51.146;14.024;2022-09-28T11:48:14;96393.72;;;8.75
71960;BMP280;59832;51.146;14.024;2022-09-28T11:50:47;96386.06;;;8.82
71960;BMP280;59832;51.146;14.024;2022-09-28T11:53:19;96375.91;;;8.82
71960;BMP280;59832;51.146;14.024;2022-09-28T11:58:29;96384.63;;;8.84
71960;BMP280;59832;51.146;14.024;2022-09-28T12:00:58;96374.09;;;8.89
71960;BMP280;59832;51.146;14.024;2022-09-28T12:03:28;96380.94;;;8.96
71960;BMP280;59832;51.146;14.024;2022-09-28T12:05:59;96374.41;;;8.95
71960;BMP280;59832;51.146;14.024;2022-09-28T12:08:34;96379.09;;;9.03
71960;BMP280;59832;51.146;14.024;2022-09-28T12:11:13;96376.19;;;9.05
71960;BMP280;59832;51.146;14.024;2022-09-28T12:13:50;96370.34;;;9.08
71960;BMP280;59832;51.146;14.024;2022-09-28T12:16:22;96377.13;;;9.25
71960;BMP280;59832;51.146;14.024;2022-09-28T12:19:12;96370.88;;;9.40
71960;BMP280;59832;51.146;14.024;2022-09-28T12:29:13;96374.44;;;9.87
71960;BMP280;59832;51.146;14.024;2022-09-28T12:34:22;96382.63;;;9.65
71960;BMP280;59832;51.146;14.024;2022-09-28T12:36:52;96388.84;;;9.60
71960;BMP280;59832;51.146;14.024;2022-09-28T12:42:32;96393.19;;;9.63
71960;BMP280;59832;51.146;14.024;2022-09-28T12:47:35;96405.19;;;9.56
71960;BMP280;59832;51.146;14.024;2022-09-28T12:50:21;96405.78;;;9.74
71960;BMP280;59832;51.146;14.024;2022-09-28T12:55:51;96401.81;;;9.73
71960;BMP280;59832;51.146;14.024;2022-09-28T13:09:13;96420.66;;;9.75
71960;BMP280;59832;51.146;14.024;2022-09-28T13:16:55;96420.38;;;10.04
71960;BMP280;59832;51.146;14.024;2022-09-28T13:19:29;96428.81;;;9.93
71960;BMP280;59832;51.146;14.024;2022-09-28T13:24:42;96438.75;;;9.81
71960;BMP280;59832;51.146;14.024;2022-09-28T13:27:12;96436.59;;;9.79
71960;BMP280;59832;51.146;14.024;2022-09-28T13:29:39;96440.28;;;9.71
71960;BMP280;59832;51.146;14.024;2022-09-28T13:32:07;96448.31;;;9.63
71960;BMP280;59832;51.146;14.024;2022-09-28T13:34:34;96448.25;;;9.70
71960;BMP280;59832;51.146;14.024;2022-09-28T13:42:11;96461.53;;;9.91
71960;BMP280;59832;51.146;14.024;2022-09-28T13:45:07;96454.56;;;9.99
71960;BMP280;59832;51.146;14.024;2022-09-28T13:52:57;96474.09;;;9.58
71960;BMP280;59832;51.146;14.024;2022-09-28T13:55:30;96473.72;;;9.59
71960;BMP280;59832;51.146;14.024;2022-09-28T13:58:02;96482.56;;;9.37
71960;BMP280;59832;51.146;14.024;2022-09-28T14:00:34;96494.25;;;9.27
71960;BMP280;59832;51.146;14.024;2022-09-28T14:03:10;96497.88;;;9.23
71960;BMP280;59832;51.146;14.024;2022-09-28T14:05:45;96491.34;;;9.22
71960;BMP280;59832;51.146;14.024;2022-09-28T14:10:52;96505.91;;;9.11
71960;BMP280;59832;51.146;14.024;2022-09-28T14:16:18;96510.22;;;9.17
71960;BMP280;59832;51.146;14.024;2022-09-28T14:19:06;96508.78;;;9.13
71960;BMP280;59832;51.146;14.024;2022-09-28T14:24:14;96514.25;;;9.15
71960;BMP280;59832;51.146;14.024;2022-09-28T14:26:51;96520.00;;;9.19
71960;BMP280;59832;51.146;14.024;2022-09-28T14:29:27;96521.13;;;9.14
71960;BMP280;59832;51.146;14.024;2022-09-28T14:32:02;96533.44;;;9.12
71960;BMP280;59832;51.146;14.024;2022-09-28T14:34:37;96532.03;;;9.00
71960;BMP280;59832;51.146;14.024;2022-09-28T14:37:23;96538.56;;;9.01
71960;BMP280;59832;51.146;14.024;2022-09-28T14:45:49;96544.72;;;9.00
71960;BMP280;59832;51.146;14.024;2022-09-28T14:48:18;96546.53;;;9.00
71960;BMP280;59832;51.146;14.024;2022-09-28T14:50:45;96554.84;;;9.00
71960;BMP280;59832;51.146;14.024;2022-09-28T14:53:14;96550.50;;;9.01
71960;BMP280;59832;51.146;14.024;2022-09-28T14:55:45;96554.47;;;9.09
71960;BMP280;59832;51.146;14.024;2022-09-28T14:58:19;96550.16;;;9.06
71960;BMP280;59832;51.146;14.024;2022-09-28T15:00:48;96554.16;;;9.07
71960;BMP280;59832;51.146;14.024;2022-09-28T15:03:15;96548.66;;;9.12
71960;BMP280;59832;51.146;14.024;2022-09-28T15:05:43;96545.75;;;9.10
71960;BMP280;59832;51.146;14.024;2022-09-28T15:08:12;96547.97;;;9.08
71960;BMP280;59832;51.146;14.024;2022-09-28T15:10:39;96556.66;;;9.00
71960;BMP280;59832;51.146;14.024;2022-09-28T15:13:19;96554.88;;;9.04
71960;BMP280;59832;51.146;14.024;2022-09-28T15:15:47;96558.50;;;9.03
71960;BMP280;59832;51.146;14.024;2022-09-28T15:18:20;96553.78;;;9.09
71960;BMP280;59832;51.146;14.024;2022-09-28T15:20:52;96564.28;;;9.03
71960;BMP280;59832;51.146;14.024;2022-09-28T15:23:38;96565.72;;;9.15
71960;BMP280;59832;51.146;14.024;2022-09-28T15:26:06;96564.25;;;9.14
71960;BMP280;59832;51.146;14.024;2022-09-28T15:28:34;96559.94;;;9.04
71960;BMP280;59832;51.146;14.024;2022-09-28T15:31:01;96564.63;;;9.09
71960;BMP280;59832;51.146;14.024;2022-09-28T15:33:29;96561.38;;;9.09
71960;BMP280;59832;51.146;14.024;2022-09-28T15:36:16;96566.09;;;9.03
71960;BMP280;59832;51.146;14.024;2022-09-28T15:38:46;96568.28;;;8.90
71960;BMP280;59832;51.146;14.024;2022-09-28T15:41:15;96575.56;;;8.95
71960;BMP280;59832;51.146;14.024;2022-09-28T15:43:42;96580.97;;;8.94
71960;BMP280;59832;51.146;14.024;2022-09-28T15:46:12;96581.69;;;8.91
71960;BMP280;59832;51.146;14.024;2022-09-28T15:51:09;96589.00;;;8.89
71960;BMP280;59832;51.146;14.024;2022-09-28T15:56:23;96594.44;;;8.77
71960;BMP280;59832;51.146;14.024;2022-09-28T15:59:09;96604.91;;;8.86
71960;BMP280;59832;51.146;14.024;2022-09-28T16:01:39;96612.16;;;8.80
71960;BMP280;59832;51.146;14.024;2022-09-28T16:12:20;96620.16;;;8.72
71960;BMP280;59832;51.146;14.024;2022-09-28T16:14:48;96624.84;;;8.73
71960;BMP280;59832;51.146;14.024;2022-09-28T16:17:33;96623.41;;;8.69
71960;BMP280;59832;51.146;14.024;2022-09-28T16:20:01;96630.66;;;8.67
71960;BMP280;59832;51.146;14.024;2022-09-28T16:22:29;96629.94;;;8.63
71960;BMP280;59832;51.146;14.024;2022-09-28T16:24:57;96632.47;;;8.63
71960;BMP280;59832;51.146;14.024;2022-09-28T16:27:29;96631.75;;;8.58
71960;BMP280;59832;51.146;14.024;2022-09-28T16:32:52;96643.69;;;8.61
71960;BMP280;59832;51.146;14.024;2022-09-28T16:37:47;96648.03;;;8.57
71960;BMP280;59832;51.146;14.024;2022-09-28T16:40:14;96654.56;;;8.58
71960;BMP280;59832;51.146;14.024;2022-09-28T16:42:42;96654.91;;;8.57
71960;BMP280;59832;51.146;14.024;2022-09-28T16:45:18;96660.69;;;8.50
71960;BMP280;59832;51.146;14.024;2022-09-28T16:47:45;96663.25;;;8.43
71960;BMP280;59832;51.146;14.024;2022-09-28T16:50:13;96663.97;;;8.44
71960;BMP280;59832;51.146;14.024;2022-09-28T16:52:39;96671.56;;;8.40
71960;BMP280;59832;51.146;14.024;2022-09-28T16:55:25;96664.69;;;8.37
71960;BMP280;59832;51.146;14.024;2022-09-28T16:58:06;96670.13;;;8.36
71960;BMP280;59832;51.146;14.024;2022-09-28T17:00:33;96667.56;;;8.32
71960;BMP280;59832;51.146;14.024;2022-09-28T17:02:59;96667.59;;;8.29
71960;BMP280;59832;51.146;14.024;2022-09-28T17:05:25;96675.88;;;8.26
71960;BMP280;59832;51.146;14.024;2022-09-28T17:07:57;96672.63;;;8.25
71960;BMP280;59832;51.146;14.024;2022-09-28T17:10:31;96675.84;;;8.22
71960;BMP280;59832;51.146;14.024;2022-09-28T17:13:20;96678.41;;;8.19